sensor_id;sensor_type;location;lat;lon;timestamp;P1;durP1;ratioP1;P2;durP2;ratioP2
3979;SDS011;2004;52.452;13.120;2023-03-01T00:06:25;24.20;;;13.67;;
3979;SDS011;2004;52.452;13.120;2023-03-01T00:14:16;22.33;;;12.40;;
3979;SDS011;2004;52.452;13.120;2023-03-01T00:22:08;29.60;;;14.57;;
3979;SDS011;2004;52.452;13.120;2023-03-01T00:29:59;26.43;;;13.50;;
3979;SDS011;2004;52.452;13.120;2023-03-01T00:37:50;24.60;;;13.87;;
3979;SDS011;2004;52.452;13.120;2023-03-01T00:45:49;23.07;;;13.03;;
3979;SDS011;2004;52.452;13.120;2023-03-01T00:53:40;25.00;;;12.33;;
3979;SDS011;2004;52.452;13.120;2023-03-01T01:01:31;19.90;;;11.37;;
3979;SDS011;2004;52.452;13.120;2023-03-01T01:09:23;21.83;;;12.23;;
3979;SDS011;2004;52.452;13.120;2023-03-01T01:17:14;19.53;;;12.30;;
3979;SDS011;2004;52.452;13.120;2023-03-01T01:25:07;25.00;;;14.67;;
3979;SDS011;2004;52.452;13.120;2023-03-01T01:32:59;19.53;;;12.17;;
3979;SDS011;2004;52.452;13.120;2023-03-01T01:40:53;32.23;;;12.00;;
3979;SDS011;2004;52.452;13.120;2023-03-01T01:48:45;21.97;;;11.87;;
3979;SDS011;2004;52.452;13.120;2023-03-01T01:56:40;25.00;;;12.53;;
3979;SDS011;2004;52.452;13.120;2023-03-01T02:59:30;21.23;;;11.60;;
3979;SDS011;2004;52.452;13.120;2023-03-01T03:07:29;22.10;;;12.30;;
3979;SDS011;2004;52.452;13.120;2023-03-01T03:15:20;21.97;;;10.93;;
3979;SDS011;2004;52.452;13.120;2023-03-01T03:23:12;21.03;;;12.90;;
3979;SDS011;2004;52.452;13.120;2023-03-01T03:31:03;22.63;;;11.50;;
3979;SDS011;2004;52.452;13.120;2023-03-01T03:38:56;17.43;;;11.80;;
3979;SDS011;2004;52.452;13.120;2023-03-01T03:46:47;23.50;;;11.80;;
3979;SDS011;2004;52.452;13.120;2023-03-01T03:54:37;24.83;;;11.93;;
3979;SDS011;2004;52.452;13.120;2023-03-01T04:02:28;19.70;;;12.47;;
3979;SDS011;2004;52.452;13.120;2023-03-01T04:10:19;20.87;;;11.90;;
3979;SDS011;2004;52.452;13.120;2023-03-01T04:18:13;21.20;;;12.93;;
3979;SDS011;2004;52.452;13.120;2023-03-01T04:26:04;22.13;;;12.53;;
3979;SDS011;2004;52.452;13.120;2023-03-01T04:33:55;21.43;;;12.70;;
3979;SDS011;2004;52.452;13.120;2023-03-01T04:41:46;19.90;;;12.23;;
3979;SDS011;2004;52.452;13.120;2023-03-01T04:49:38;22.20;;;12.07;;
3979;SDS011;2004;52.452;13.120;2023-03-01T04:57:29;17.73;;;11.33;;
3979;SDS011;2004;52.452;13.120;2023-03-01T05:05:24;19.90;;;12.37;;
3979;SDS011;2004;52.452;13.120;2023-03-01T05:13:17;21.43;;;12.90;;
3979;SDS011;2004;52.452;13.120;2023-03-01T05:21:13;29.10;;;12.30;;
3979;SDS011;2004;52.452;13.120;2023-03-01T05:29:07;23.83;;;13.80;;
3979;SDS011;2004;52.452;13.120;2023-03-01T05:36:59;20.73;;;13.07;;
3979;SDS011;2004;52.452;13.120;2023-03-01T05:44:50;23.80;;;13.60;;
3979;SDS011;2004;52.452;13.120;2023-03-01T05:52:40;23.97;;;13.23;;
3979;SDS011;2004;52.452;13.120;2023-03-01T06:00:31;20.07;;;12.43;;
3979;SDS011;2004;52.452;13.120;2023-03-01T06:08:22;21.57;;;12.30;;
3979;SDS011;2004;52.452;13.120;2023-03-01T06:16:14;25.53;;;15.67;;
3979;SDS011;2004;52.452;13.120;2023-03-01T06:24:05;24.67;;;14.13;;
3979;SDS011;2004;52.452;13.120;2023-03-01T06:31:57;24.37;;;14.60;;
3979;SDS011;2004;52.452;13.120;2023-03-01T06:39:47;27.97;;;13.30;;
3979;SDS011;2004;52.452;13.120;2023-03-01T06:47:39;26.00;;;15.03;;
3979;SDS011;2004;52.452;13.120;2023-03-01T06:55:30;26.33;;;13.80;;
3979;SDS011;2004;52.452;13.120;2023-03-01T07:03:22;24.50;;;14.90;;
3979;SDS011;2004;52.452;13.120;2023-03-01T07:11:12;25.63;;;15.17;;
3979;SDS011;2004;52.452;13.120;2023-03-01T07:19:03;36.67;;;20.70;;
3979;SDS011;2004;52.452;13.120;2023-03-01T07:26:56;34.07;;;18.70;;
3979;SDS011;2004;52.452;13.120;2023-03-01T07:34:46;30.17;;;16.97;;
3979;SDS011;2004;52.452;13.120;2023-03-01T07:42:37;23.40;;;15.20;;
3979;SDS011;2004;52.452;13.120;2023-03-01T07:50:28;37.33;;;16.23;;
3979;SDS011;2004;52.452;13.120;2023-03-01T07:58:18;27.37;;;15.40;;
3979;SDS011;2004;52.452;13.120;2023-03-01T08:06:10;21.00;;;12.60;;
3979;SDS011;2004;52.452;13.120;2023-03-01T08:14:02;23.80;;;14.73;;
3979;SDS011;2004;52.452;13.120;2023-03-01T08:21:52;34.50;;;15.50;;
3979;SDS011;2004;52.452;13.120;2023-03-01T08:29:43;20.73;;;13.77;;
3979;SDS011;2004;52.452;13.120;2023-03-01T08:37:34;26.73;;;14.20;;
3979;SDS011;2004;52.452;13.120;2023-03-01T08:45:24;22.10;;;13.30;;
3979;SDS011;2004;52.452;13.120;2023-03-01T08:53:15;18.80;;;11.50;;
3979;SDS011;2004;52.452;13.120;2023-03-01T09:01:13;16.80;;;11.17;;
3979;SDS011;2004;52.452;13.120;2023-03-01T09:09:12;18.43;;;9.30;;
3979;SDS011;2004;52.452;13.120;2023-03-01T09:17:05;11.13;;;6.50;;
3979;SDS011;2004;52.452;13.120;2023-03-01T09:24:55;12.10;;;6.30;;
3979;SDS011;2004;52.452;13.120;2023-03-01T09:32:49;6.17;;;4.63;;
3979;SDS011;2004;52.452;13.120;2023-03-01T09:40:42;15.00;;;4.70;;
3979;SDS011;2004;52.452;13.120;2023-03-01T09:48:41;4.67;;;3.67;;
3979;SDS011;2004;52.452;13.120;2023-03-01T09:56:59;5.80;;;3.63;;
3979;SDS011;2004;52.452;13.120;2023-03-01T10:04:52;19.27;;;5.20;;
3979;SDS011;2004;52.452;13.120;2023-03-01T10:12:48;5.33;;;3.10;;
3979;SDS011;2004;52.452;13.120;2023-03-01T10:20:43;3.57;;;2.97;;
3979;SDS011;2004;52.452;13.120;2023-03-01T10:28:46;7.87;;;3.43;;
3979;SDS011;2004;52.452;13.120;2023-03-01T10:37:08;2.97;;;2.67;;
3979;SDS011;2004;52.452;13.120;2023-03-01T10:45:16;5.13;;;3.47;;
3979;SDS011;2004;52.452;13.120;2023-03-01T10:53:22;5.60;;;3.10;;
3979;SDS011;2004;52.452;13.120;2023-03-01T11:09:13;5.90;;;3.30;;
3979;SDS011;2004;52.452;13.120;2023-03-01T11:17:13;6.40;;;3.80;;
3979;SDS011;2004;52.452;13.120;2023-03-01T11:25:13;8.13;;;5.10;;
3979;SDS011;2004;52.452;13.120;2023-03-01T11:57:20;6.63;;;5.00;;
3979;SDS011;2004;52.452;13.120;2023-03-01T12:22:10;6.70;;;3.90;;
3979;SDS011;2004;52.452;13.120;2023-03-01T12:38:20;5.87;;;3.20;;
3979;SDS011;2004;52.452;13.120;2023-03-01T12:46:49;5.20;;;3.17;;
3979;SDS011;2004;52.452;13.120;2023-03-01T12:55:00;5.27;;;3.07;;
3979;SDS011;2004;52.452;13.120;2023-03-01T13:03:06;4.20;;;2.63;;
3979;SDS011;2004;52.452;13.120;2023-03-01T13:11:23;2.17;;;1.90;;
3979;SDS011;2004;52.452;13.120;2023-03-01T13:34:57;3.33;;;2.13;;
3979;SDS011;2004;52.452;13.120;2023-03-01T13:42:51;2.87;;;2.50;;
3979;SDS011;2004;52.452;13.120;2023-03-01T13:50:47;4.10;;;2.30;;
3979;SDS011;2004;52.452;13.120;2023-03-01T13:58:47;2.73;;;2.30;;
3979;SDS011;2004;52.452;13.120;2023-03-01T14:06:47;3.53;;;2.47;;
3979;SDS011;2004;52.452;13.120;2023-03-01T14:23:08;1.83;;;1.60;;
3979;SDS011;2004;52.452;13.120;2023-03-01T14:39:34;7.30;;;3.30;;
3979;SDS011;2004;52.452;13.120;2023-03-01T14:47:29;4.90;;;2.97;;
3979;SDS011;2004;52.452;13.120;2023-03-01T14:55:28;5.40;;;2.60;;
3979;SDS011;2004;52.452;13.120;2023-03-01T15:03:30;3.13;;;2.40;;
3979;SDS011;2004;52.452;13.120;2023-03-01T15:11:34;4.63;;;2.73;;
3979;SDS011;2004;52.452;13.120;2023-03-01T15:19:26;7.50;;;2.40;;
3979;SDS011;2004;52.452;13.120;2023-03-01T15:27:20;3.77;;;2.57;;
3979;SDS011;2004;52.452;13.120;2023-03-01T15:51:31;4.07;;;3.13;;
3979;SDS011;2004;52.452;13.120;2023-03-01T15:59:26;3.50;;;2.50;;
3979;SDS011;2004;52.452;13.120;2023-03-01T16:07:16;9.60;;;2.70;;
3979;SDS011;2004;52.452;13.120;2023-03-01T16:15:15;8.43;;;2.37;;
3979;SDS011;2004;52.452;13.120;2023-03-01T16:23:09;2.00;;;1.80;;
3979;SDS011;2004;52.452;13.120;2023-03-01T16:31:01;2.60;;;2.40;;
3979;SDS011;2004;52.452;13.120;2023-03-01T16:38:51;3.63;;;2.20;;
3979;SDS011;2004;52.452;13.120;2023-03-01T16:46:42;6.27;;;2.60;;
3979;SDS011;2004;52.452;13.120;2023-03-01T16:54:33;4.57;;;2.53;;
3979;SDS011;2004;52.452;13.120;2023-03-01T17:02:23;2.90;;;2.50;;
3979;SDS011;2004;52.452;13.120;2023-03-01T17:10:14;5.80;;;3.73;;
3979;SDS011;2004;52.452;13.120;2023-03-01T17:18:05;7.77;;;3.50;;
3979;SDS011;2004;52.452;13.120;2023-03-01T17:25:55;4.77;;;3.40;;
3979;SDS011;2004;52.452;13.120;2023-03-01T17:33:46;8.83;;;4.57;;
3979;SDS011;2004;52.452;13.120;2023-03-01T17:41:36;7.77;;;4.23;;
3979;SDS011;2004;52.452;13.120;2023-03-01T17:49:27;7.50;;;4.97;;
3979;SDS011;2004;52.452;13.120;2023-03-01T17:57:18;5.33;;;4.83;;
3979;SDS011;2004;52.452;13.120;2023-03-01T18:05:09;18.57;;;9.10;;
3979;SDS011;2004;52.452;13.120;2023-03-01T18:13:00;19.80;;;11.37;;
3979;SDS011;2004;52.452;13.120;2023-03-01T18:28:31;19.67;;;11.40;;
3979;SDS011;2004;52.452;13.120;2023-03-01T18:36:26;14.67;;;8.30;;
3979;SDS011;2004;52.452;13.120;2023-03-01T18:44:18;12.63;;;9.03;;
3979;SDS011;2004;52.452;13.120;2023-03-01T18:52:09;12.87;;;8.67;;
3979;SDS011;2004;52.452;13.120;2023-03-01T19:07:40;17.70;;;9.50;;
3979;SDS011;2004;52.452;13.120;2023-03-01T19:15:30;15.60;;;8.10;;
3979;SDS011;2004;52.452;13.120;2023-03-01T19:23:24;15.33;;;9.60;;
3979;SDS011;2004;52.452;13.120;2023-03-01T19:31:16;23.20;;;13.37;;
3979;SDS011;2004;52.452;13.120;2023-03-01T19:39:09;26.17;;;16.10;;
3979;SDS011;2004;52.452;13.120;2023-03-01T19:47:02;25.50;;;15.70;;
3979;SDS011;2004;52.452;13.120;2023-03-01T19:54:53;29.23;;;16.13;;
3979;SDS011;2004;52.452;13.120;2023-03-01T20:02:43;28.07;;;15.30;;
3979;SDS011;2004;52.452;13.120;2023-03-01T20:10:34;22.90;;;14.50;;
3979;SDS011;2004;52.452;13.120;2023-03-01T20:18:25;26.93;;;15.63;;
3979;SDS011;2004;52.452;13.120;2023-03-01T20:26:19;36.67;;;18.57;;
3979;SDS011;2004;52.452;13.120;2023-03-01T20:34:11;33.57;;;19.00;;
3979;SDS011;2004;52.452;13.120;2023-03-01T20:42:02;36.77;;;18.10;;
3979;SDS011;2004;52.452;13.120;2023-03-01T20:49:54;29.13;;;16.43;;
3979;SDS011;2004;52.452;13.120;2023-03-01T20:57:47;32.17;;;16.73;;
3979;SDS011;2004;52.452;13.120;2023-03-01T21:05:38;29.77;;;19.30;;
3979;SDS011;2004;52.452;13.120;2023-03-01T21:13:29;44.03;;;22.97;;
3979;SDS011;2004;52.452;13.120;2023-03-01T21:21:21;39.13;;;23.17;;
3979;SDS011;2004;52.452;13.120;2023-03-01T21:29:12;39.87;;;22.10;;
3979;SDS011;2004;52.452;13.120;2023-03-01T21:37:03;40.90;;;24.07;;
3979;SDS011;2004;52.452;13.120;2023-03-01T21:44:54;36.43;;;20.00;;
3979;SDS011;2004;52.452;13.120;2023-03-01T21:52:44;33.17;;;18.40;;
3979;SDS011;2004;52.452;13.120;2023-03-01T22:00:35;36.20;;;19.13;;
3979;SDS011;2004;52.452;13.120;2023-03-01T22:08:28;33.77;;;18.30;;
3979;SDS011;2004;52.452;13.120;2023-03-01T22:16:19;29.50;;;17.70;;
3979;SDS011;2004;52.452;13.120;2023-03-01T22:24:12;29.80;;;17.60;;
3979;SDS011;2004;52.452;13.120;2023-03-01T22:32:07;37.43;;;17.70;;
3979;SDS011;2004;52.452;13.120;2023-03-01T22:39:58;29.83;;;15.90;;
3979;SDS011;2004;52.452;13.120;2023-03-01T22:47:49;25.03;;;16.10;;
3979;SDS011;2004;52.452;13.120;2023-03-01T22:55:40;27.23;;;15.73;;
3979;SDS011;2004;52.452;13.120;2023-03-01T23:03:31;28.30;;;16.43;;
3979;SDS011;2004;52.452;13.120;2023-03-01T23:11:22;28.20;;;16.37;;
3979;SDS011;2004;52.452;13.120;2023-03-01T23:19:14;26.57;;;15.67;;
3979;SDS011;2004;52.452;13.120;2023-03-01T23:27:06;26.60;;;15.47;;
3979;SDS011;2004;52.452;13.120;2023-03-01T23:34:57;26.80;;;15.80;;
3979;SDS011;2004;52.452;13.120;2023-03-01T23:42:47;27.67;;;14.77;;
3979;SDS011;2004;52.452;13.120;2023-03-01T23:50:38;28.80;;;14.10;;
3979;SDS011;2004;52.452;13.120;2023-03-01T23:58:37;18.77;;;11.90;;
